createdAt,value
2016-04-24T00:00:36.314Z,35.11
2016-04-24T00:01:36.380Z,34.53
2016-04-24T00:02:36.429Z,34.25
2016-04-24T00:03:36.478Z,34.44
2016-04-24T00:04:36.528Z,34.42
2016-04-24T00:05:36.594Z,33.58
2016-04-24T00:06:36.643Z,33.65
2016-04-24T00:07:36.881Z,33.58
2016-04-24T00:08:36.742Z,33.86
2016-04-24T00:09:36.807Z,33.65
2016-04-24T00:10:36.842Z,33.39
2016-04-24T00:11:36.891Z,33.58
2016-04-24T00:12:36.924Z,32.89
2016-04-24T00:13:36.991Z,33
2016-04-24T00:14:37.040Z,33.08
2016-04-24T00:15:37.089Z,32.89
2016-04-24T00:16:37.154Z,32.79
2016-04-24T00:17:37.204Z,32.7
2016-04-24T00:18:37.254Z,32.7
2016-04-24T00:19:37.303Z,32.79
2016-04-24T00:20:37.368Z,32.31
2016-04-24T00:21:37.387Z,32.31
2016-04-24T00:22:38.092Z,32.12
2016-04-24T00:23:37.486Z,32.41
2016-04-24T00:24:37.551Z,32.03
2016-04-24T00:25:37.600Z,32.6
2016-04-24T00:26:37.651Z,32.51
2016-04-24T00:27:37.700Z,32.6
2016-04-24T00:28:37.748Z,32.6
2016-04-24T00:29:37.815Z,32.31
2016-04-24T00:30:37.848Z,32.51
2016-04-24T00:31:37.914Z,32.31
2016-04-24T00:32:37.947Z,32.41
2016-04-24T00:33:37.997Z,32.12
2016-04-24T00:34:38.078Z,32.12
2016-04-24T00:35:38.127Z,32.03
2016-04-24T00:36:38.161Z,32.31
2016-04-24T00:37:38.273Z,32.41
2016-04-24T00:38:38.260Z,32.41
2016-04-24T00:39:38.311Z,32.31
2016-04-24T00:40:38.375Z,32.41
2016-04-24T00:41:38.408Z,32.21
2016-04-24T00:42:38.459Z,32.6
2016-04-24T00:43:38.508Z,32.12
2016-04-24T00:44:38.588Z,32.21
2016-04-24T00:45:38.624Z,32.12
2016-04-24T00:46:42.641Z,32.03
2016-04-24T00:47:38.722Z,32.41
2016-04-24T00:48:38.756Z,32.12
2016-04-24T00:49:38.821Z,31.84
2016-04-24T00:50:38.855Z,31.84
2016-04-24T00:51:38.904Z,32.03
2016-04-24T00:52:39.032Z,32.41
2016-04-24T00:53:39.004Z,32.41
2016-04-24T00:54:39.053Z,31.93
2016-04-24T00:55:39.119Z,32.21
2016-04-24T00:56:39.168Z,32.12
2016-04-24T00:57:39.061Z,32.21
2016-04-24T00:58:39.284Z,31.93
2016-04-24T00:59:39.317Z,32.03
2016-04-24T01:00:39.366Z,32.03
2016-04-24T01:01:39.432Z,31.93
2016-04-24T01:02:39.465Z,31.74
2016-04-24T01:03:39.531Z,32.03
2016-04-24T01:04:39.565Z,31.54
2016-04-24T01:05:39.614Z,31.45
2016-04-24T01:06:39.680Z,31.35
2016-04-24T01:07:40.447Z,31.45
2016-04-24T01:08:39.778Z,31.84
2016-04-24T01:09:39.828Z,31.84
2016-04-24T01:10:39.893Z,31.93
2016-04-24T01:11:39.928Z,31.84
2016-04-24T01:12:39.977Z,31.93
2016-04-24T01:13:40.026Z,32.03
2016-04-24T01:14:40.061Z,31.64
2016-04-24T01:15:40.125Z,32.12
2016-04-24T01:16:40.159Z,32.03
2016-04-24T01:17:40.241Z,31.84
2016-04-24T01:18:40.274Z,31.93
2016-04-24T01:19:39.574Z,31.84
2016-04-24T01:20:40.405Z,31.84
2016-04-24T01:21:40.470Z,31.74
2016-04-24T01:22:41.098Z,31.84
2016-04-24T01:23:40.539Z,31.64
2016-04-24T01:24:40.589Z,31.64
2016-04-24T01:25:40.623Z,32.03
2016-04-24T01:26:40.688Z,31.74
2016-04-24T01:27:40.723Z,31.54
2016-04-24T01:28:40.787Z,31.74
2016-04-24T01:29:40.822Z,31.93
2016-04-24T01:30:40.887Z,32.03
2016-04-24T01:31:40.936Z,31.64
2016-04-24T01:32:41.002Z,31.93
2016-04-24T01:33:41.035Z,32.03
2016-04-24T01:34:41.100Z,31.93
2016-04-24T01:35:41.135Z,31.93
2016-04-24T01:36:41.653Z,31.84
2016-04-24T01:37:41.124Z,31.54
2016-04-24T01:38:41.283Z,31.54
2016-04-24T01:39:41.332Z,31.74
2016-04-24T01:40:41.366Z,31.93
2016-04-24T01:41:41.447Z,31.93
2016-04-24T01:42:41.481Z,32.03
2016-04-24T01:43:41.532Z,32.03
2016-04-24T01:44:41.596Z,32.6
2016-04-24T01:45:41.646Z,32.41
2016-04-24T01:46:41.696Z,32.51
2016-04-24T01:47:41.745Z,32.6
2016-04-24T01:48:41.795Z,32.41
2016-04-24T01:49:41.843Z,32.12
2016-04-24T01:50:41.893Z,32.31
2016-04-24T01:51:41.943Z,32.31
2016-04-24T01:52:42.352Z,32.68
2016-04-24T01:53:42.076Z,32.21
2016-04-24T01:54:42.166Z,32.31
2016-04-24T01:55:42.271Z,32.39
2016-04-24T01:56:42.361Z,32.21
2016-04-24T01:57:42.436Z,32.12
2016-04-24T01:58:42.503Z,32.41
2016-04-24T01:59:42.584Z,32.2
2016-04-24T02:00:42.632Z,32.1
2016-04-24T02:01:42.697Z,32.21
2016-04-24T02:02:42.776Z,32.29
2016-04-24T02:03:42.817Z,31.92
2016-04-24T02:04:42.873Z,31.82
2016-04-24T02:05:42.942Z,32.12
2016-04-24T02:06:42.981Z,31.93
2016-04-24T02:07:43.083Z,32.03
2016-04-24T02:08:43.104Z,32.21
2016-04-24T02:09:43.156Z,32.03
2016-04-24T02:10:43.223Z,31.93
2016-04-24T02:11:43.274Z,31.74
2016-04-24T02:12:43.310Z,31.84
2016-04-24T02:13:43.377Z,31.92
2016-04-24T02:14:43.427Z,31.84
2016-04-24T02:15:43.461Z,31.82
2016-04-24T02:16:43.511Z,31.93
2016-04-24T02:17:43.576Z,31.82
2016-04-24T02:18:43.609Z,31.82
2016-04-24T02:19:43.676Z,32.01
2016-04-24T02:20:43.741Z,31.54
2016-04-24T02:21:43.760Z,32.79
2016-04-24T02:22:44.544Z,32.29
2016-04-24T02:23:43.875Z,33.35
2016-04-24T02:24:43.910Z,33.17
2016-04-24T02:25:43.959Z,33.56
2016-04-24T02:26:44.024Z,33.16
2016-04-24T02:27:44.058Z,33.27
2016-04-24T02:28:44.107Z,33.37
2016-04-24T02:29:44.188Z,33.37
2016-04-24T02:30:44.238Z,33.65
2016-04-24T02:31:44.271Z,33.37
2016-04-24T02:32:44.321Z,33.84
2016-04-24T02:33:44.371Z,33.56
2016-04-24T02:34:44.436Z,33.65
2016-04-24T02:35:44.486Z,33.56
2016-04-24T02:36:44.535Z,33.94
2016-04-24T02:37:45.209Z,34.23
2016-04-24T02:38:44.651Z,34.52
2016-04-24T02:39:44.668Z,33.94
2016-04-24T02:40:44.734Z,33.56
2016-04-24T02:41:44.783Z,33.84
2016-04-24T02:42:44.817Z,34.33
2016-04-24T02:43:44.866Z,34.42
2016-04-24T02:44:44.931Z,34.33
2016-04-24T02:45:44.997Z,34.23
2016-04-24T02:46:45.047Z,34.33
2016-04-24T02:47:45.081Z,34.23
2016-04-24T02:48:45.130Z,33.84
2016-04-24T02:49:45.195Z,34.42
2016-04-24T02:50:45.213Z,34.23
2016-04-24T02:51:45.279Z,34.33
2016-04-24T02:52:45.344Z,34.23
2016-04-24T02:53:45.377Z,34.42
2016-04-24T02:54:45.428Z,34.52
2016-04-24T02:55:45.508Z,34.61
2016-04-24T02:56:45.542Z,34.61
2016-04-24T02:57:45.607Z,34.42
2016-04-24T02:58:45.641Z,34.61
2016-04-24T02:59:45.691Z,34.61
2016-04-24T03:00:45.756Z,34.52
2016-04-24T03:01:45.790Z,34.71
2016-04-24T03:02:45.839Z,34.52
2016-04-24T03:03:45.904Z,34.81
2016-04-24T03:04:45.939Z,34.61
2016-04-24T03:05:45.987Z,34.71
2016-04-24T03:06:46.054Z,34.81
2016-04-24T03:07:46.587Z,35
2016-04-24T03:08:46.121Z,34.81
2016-04-24T03:09:46.203Z,34.61
2016-04-24T03:10:46.236Z,34.52
2016-04-24T03:11:46.317Z,34.52
2016-04-24T03:12:46.351Z,34.61
2016-04-24T03:13:46.384Z,35
2016-04-24T03:14:46.466Z,34.71
2016-04-24T03:15:46.515Z,34.81
2016-04-24T03:16:45.800Z,35
2016-04-24T03:17:46.614Z,35.19
2016-04-24T03:18:46.664Z,35.77
2016-04-24T03:19:46.683Z,35.19
2016-04-24T03:20:46.763Z,35
2016-04-24T03:21:46.813Z,35.1
2016-04-24T03:22:46.830Z,35.1
2016-04-24T03:23:46.146Z,35.38
2016-04-24T03:24:46.946Z,35.28
2016-04-24T03:25:47.027Z,35.1
2016-04-24T03:26:47.060Z,35.67
2016-04-24T03:27:47.094Z,35.48
2016-04-24T03:28:47.159Z,35.38
2016-04-24T03:29:47.224Z,35.57
2016-04-24T03:30:47.259Z,35.67
2016-04-24T03:31:47.308Z,35.48
2016-04-24T03:32:47.373Z,35.67
2016-04-24T03:33:47.407Z,35.38
2016-04-24T03:34:47.457Z,35.67
2016-04-24T03:35:47.506Z,35.57
2016-04-24T03:36:47.571Z,35.86
2016-04-24T03:37:49.981Z,35.77
2016-04-24T03:38:47.655Z,35.67
2016-04-24T03:39:47.704Z,35.48
2016-04-24T03:40:47.770Z,35.86
2016-04-24T03:41:47.803Z,36.24
2016-04-24T03:42:47.869Z,36.34
2016-04-24T03:43:47.919Z,36.34
2016-04-24T03:44:47.953Z,36.05
2016-04-24T03:45:48.003Z,36.44
2016-04-24T03:46:48.067Z,36.44
2016-04-24T03:47:48.116Z,36.53
2016-04-24T03:48:48.167Z,36.15
2016-04-24T03:49:48.216Z,36.05
2016-04-24T03:50:48.250Z,35.96
2016-04-24T03:51:48.330Z,36.44
2016-04-24T03:52:48.380Z,36.53
2016-04-24T03:53:48.257Z,36.24
2016-04-24T03:54:48.480Z,36.53
2016-04-24T03:55:48.530Z,36.72
2016-04-24T03:56:48.579Z,36.91
2016-04-24T03:57:48.627Z,37.01
2016-04-24T03:58:48.694Z,37.2
2016-04-24T03:59:48.711Z,37.01
2016-04-24T04:00:48.777Z,37.2
2016-04-24T04:01:48.842Z,37.11
2016-04-24T04:02:48.876Z,37.3
2016-04-24T04:03:48.925Z,37.3
2016-04-24T04:04:48.991Z,37.59
2016-04-24T04:05:49.009Z,37.78
2016-04-24T04:06:49.074Z,37.78
2016-04-24T04:07:49.373Z,37.78
2016-04-24T04:08:50.501Z,37.49
2016-04-24T04:09:49.223Z,37.49
2016-04-24T04:10:48.538Z,37.2
2016-04-24T04:11:49.322Z,37.2
2016-04-24T04:12:49.372Z,37.3
2016-04-24T04:13:49.436Z,37.49
2016-04-24T04:14:49.471Z,37.68
2016-04-24T04:15:49.536Z,37.68
2016-04-24T04:16:49.586Z,37.78
2016-04-24T04:17:49.619Z,37.87
2016-04-24T04:18:49.700Z,37.68
2016-04-24T04:19:49.766Z,37.59
2016-04-24T04:20:49.784Z,37.87
2016-04-24T04:21:49.833Z,37.78
2016-04-24T04:22:49.149Z,37.87
2016-04-24T04:23:49.854Z,37.68
2016-04-24T04:24:49.982Z,37.59
2016-04-24T04:25:50.047Z,37.49
2016-04-24T04:26:50.066Z,37.78
2016-04-24T04:27:50.146Z,37.78
2016-04-24T04:28:50.180Z,37.68
2016-04-24T04:29:50.246Z,37.49
2016-04-24T04:30:50.326Z,37.4
2016-04-24T04:31:50.329Z,37.68
2016-04-24T04:32:50.394Z,37.49
2016-04-24T04:33:50.459Z,37.49
2016-04-24T04:34:50.477Z,37.49
2016-04-24T04:35:50.543Z,37.3
2016-04-24T04:36:50.592Z,37.59
2016-04-24T04:37:50.470Z,37.59
2016-04-24T04:38:50.645Z,37.49
2016-04-24T04:39:50.741Z,37.49
2016-04-24T04:40:50.806Z,37.4
2016-04-24T04:41:50.856Z,37.3
2016-04-24T04:42:50.889Z,37.2
2016-04-24T04:43:50.955Z,37.3
2016-04-24T04:44:51.036Z,37.59
2016-04-24T04:45:51.039Z,37.4
2016-04-24T04:46:51.103Z,37.11
2016-04-24T04:47:51.153Z,37.11
2016-04-24T04:48:51.187Z,37.11
2016-04-24T04:49:51.237Z,37.2
2016-04-24T04:50:51.333Z,37.2
2016-04-24T04:51:51.352Z,37.2
2016-04-24T04:52:51.416Z,37.01
2016-04-24T04:53:51.435Z,37.11
2016-04-24T04:54:51.500Z,37.49
2016-04-24T04:55:51.565Z,37.3
2016-04-24T04:56:51.583Z,37.3
2016-04-24T04:57:51.649Z,37.01
2016-04-24T04:58:51.714Z,37.2
2016-04-24T04:59:51.763Z,37.3
2016-04-24T05:00:51.797Z,37.59
2016-04-24T05:01:51.862Z,37.4
2016-04-24T05:02:51.913Z,37.4
2016-04-24T05:03:51.946Z,37.3
2016-04-24T05:04:52.027Z,37.49
2016-04-24T05:05:52.060Z,37.3
2016-04-24T05:06:52.126Z,37.01
2016-04-24T05:07:52.175Z,37.01
2016-04-24T05:08:53.476Z,37.3
2016-04-24T05:09:52.275Z,37.01
2016-04-24T05:10:52.324Z,36.82
2016-04-24T05:11:52.358Z,37.11
2016-04-24T05:12:52.424Z,37.01
2016-04-24T05:13:52.473Z,37.3
2016-04-24T05:14:52.507Z,37.4
2016-04-24T05:15:52.572Z,37.49
2016-04-24T05:16:52.622Z,37.68
2016-04-24T05:17:52.655Z,37.87
2016-04-24T05:18:52.737Z,37.68
2016-04-24T05:19:52.755Z,37.78
2016-04-24T05:20:52.819Z,37.78
2016-04-24T05:21:52.885Z,37.59
2016-04-24T05:22:52.920Z,37.4
2016-04-24T05:23:53.141Z,37.49
2016-04-24T05:24:53.033Z,37.78
2016-04-24T05:25:53.083Z,37.78
2016-04-24T05:26:53.101Z,37.68
2016-04-24T05:27:53.183Z,37.4
2016-04-24T05:28:53.217Z,37.68
2016-04-24T05:29:53.266Z,37.87
2016-04-24T05:30:53.331Z,38.16
2016-04-24T05:31:53.380Z,38.07
2016-04-24T05:32:53.446Z,38.16
2016-04-24T05:33:53.465Z,38.26
2016-04-24T05:34:53.529Z,38.26
2016-04-24T05:35:53.579Z,38.54
2016-04-24T05:36:53.612Z,38.16
2016-04-24T05:37:53.663Z,38.26
2016-04-24T05:38:53.587Z,38.26
2016-04-24T05:39:53.777Z,38.07
2016-04-24T05:40:53.811Z,38.16
2016-04-24T05:41:53.893Z,38.16
2016-04-24T05:42:53.942Z,38.07
2016-04-24T05:43:53.976Z,38.16
2016-04-24T05:44:54.040Z,38.26
2016-04-24T05:45:54.090Z,38.26
2016-04-24T05:46:54.124Z,38.26
2016-04-24T05:47:54.190Z,38.64
2016-04-24T05:48:54.239Z,38.26
2016-04-24T05:49:54.289Z,38.26
2016-04-24T05:50:54.322Z,38.07
2016-04-24T05:51:54.403Z,38.64
2016-04-24T05:52:54.437Z,38.35
2016-04-24T05:53:54.487Z,38.45
2016-04-24T05:54:54.552Z,38.64
2016-04-24T05:55:54.586Z,38.54
2016-04-24T05:56:54.651Z,39.22
2016-04-24T05:57:54.685Z,38.64
2016-04-24T05:58:54.735Z,38.83
2016-04-24T05:59:54.800Z,38.83
2016-04-24T06:00:54.833Z,39.03
2016-04-24T06:01:54.883Z,38.93
2016-04-24T06:02:54.949Z,39.03
2016-04-24T06:03:54.998Z,38.83
2016-04-24T06:04:55.032Z,39.03
2016-04-24T06:05:55.113Z,39.12
2016-04-24T06:06:55.146Z,39.5
2016-04-24T06:07:55.181Z,39.12
2016-04-24T06:08:55.262Z,39.03
2016-04-24T06:09:55.295Z,39.31
2016-04-24T06:10:55.345Z,39.12
2016-04-24T06:11:55.395Z,39.03
2016-04-24T06:12:55.445Z,38.54
2016-04-24T06:13:55.509Z,39.12
2016-04-24T06:14:55.543Z,39.41
2016-04-24T06:15:55.608Z,39.41
2016-04-24T06:16:55.658Z,39.79
2016-04-24T06:17:55.723Z,39.5
2016-04-24T06:18:55.742Z,39.31
2016-04-24T06:19:55.806Z,39.98
2016-04-24T06:20:55.872Z,39.89
2016-04-24T06:21:55.889Z,39.7
2016-04-24T06:22:55.961Z,39.5
2016-04-24T06:23:56.011Z,38.93
2016-04-24T06:24:56.061Z,39.5
2016-04-24T06:25:56.109Z,39.7
2016-04-24T06:26:56.144Z,39.41
2016-04-24T06:27:56.194Z,39.79
2016-04-24T06:28:56.259Z,39.5
2016-04-24T06:29:56.292Z,39.6
2016-04-24T06:30:56.342Z,39.22
2016-04-24T06:31:56.423Z,39.03
2016-04-24T06:32:56.473Z,39.5
2016-04-24T06:33:56.506Z,39.03
2016-04-24T06:34:56.572Z,38.83
2016-04-24T06:35:56.605Z,38.74
2016-04-24T06:36:56.671Z,38.74
2016-04-24T06:37:56.705Z,39.12
2016-04-24T06:38:57.192Z,39.41
2016-04-24T06:39:56.819Z,39.5
2016-04-24T06:40:56.854Z,39.12
2016-04-24T06:41:56.746Z,38.93
2016-04-24T06:42:56.969Z,39.6
2016-04-24T06:43:57.017Z,39.41
2016-04-24T06:44:57.068Z,39.5
2016-04-24T06:45:57.117Z,39.6
2016-04-24T06:46:57.026Z,39.79
2016-04-24T06:47:57.215Z,39.31
2016-04-24T06:48:57.266Z,39.79
2016-04-24T06:49:57.315Z,39.6
2016-04-24T06:50:57.396Z,39.89
2016-04-24T06:51:57.429Z,39.79
2016-04-24T06:52:57.465Z,39.5
2016-04-24T06:53:57.404Z,39.89
2016-04-24T06:54:57.579Z,39.79
2016-04-24T06:55:57.612Z,39.79
2016-04-24T06:56:57.678Z,39.6
2016-04-24T06:57:57.742Z,39.6
2016-04-24T06:58:57.762Z,39.22
2016-04-24T06:59:57.811Z,39.41
2016-04-24T07:00:57.876Z,40.08
2016-04-24T07:01:57.941Z,39.31
2016-04-24T07:02:57.991Z,39.98
2016-04-24T07:03:58.024Z,40.27
2016-04-24T07:04:58.089Z,40.17
2016-04-24T07:05:58.139Z,40.08
2016-04-24T07:06:58.642Z,40.37
2016-04-24T07:07:58.222Z,39.79
2016-04-24T07:08:58.272Z,40.37
2016-04-24T07:09:58.322Z,39.7
2016-04-24T07:10:58.372Z,40.17
2016-04-24T07:11:58.437Z,40.56
2016-04-24T07:12:58.471Z,40.56
2016-04-24T07:13:58.536Z,39.98
2016-04-24T07:14:58.570Z,38.64
2016-04-24T07:15:58.635Z,39.89
2016-04-24T07:16:58.701Z,39.79
2016-04-24T07:17:58.718Z,39.98
2016-04-24T07:18:58.784Z,39.98
2016-04-24T07:19:58.833Z,39.89
2016-04-24T07:20:58.868Z,39.5
2016-04-24T07:21:58.933Z,39.5
2016-04-24T07:22:58.998Z,39.79
2016-04-24T07:23:58.890Z,39.79
2016-04-24T07:24:59.065Z,39.98
2016-04-24T07:25:59.145Z,39.89
2016-04-24T07:26:59.196Z,39.6
2016-04-24T07:27:59.231Z,39.79
2016-04-24T07:28:59.342Z,40.08
2016-04-24T07:29:59.188Z,39.89
2016-04-24T07:30:59.379Z,40.17
2016-04-24T07:31:59.444Z,39.89
2016-04-24T07:32:59.509Z,40.37
2016-04-24T07:33:59.528Z,40.17
2016-04-24T07:34:59.577Z,40.66
2016-04-24T07:35:59.658Z,40.75
2016-04-24T07:36:59.691Z,40.37
2016-04-24T07:37:59.741Z,40.27
2016-04-24T07:39:01.213Z,40.27
2016-04-24T07:39:59.841Z,40.27
2016-04-24T07:40:59.905Z,40.47
2016-04-24T07:41:59.939Z,40.75
2016-04-24T07:42:59.988Z,40.37
2016-04-24T07:44:00.054Z,40.47
2016-04-24T07:45:00.088Z,40.56
2016-04-24T07:46:00.138Z,40.56
2016-04-24T07:47:00.202Z,40.37
2016-04-24T07:48:00.237Z,40.47
2016-04-24T07:49:00.286Z,40.47
2016-04-24T07:50:00.368Z,41.13
2016-04-24T07:51:00.401Z,40.66
2016-04-24T07:52:00.451Z,40.94
2016-04-24T07:53:00.484Z,40.84
2016-04-24T07:54:00.550Z,41.13
2016-04-24T07:55:00.614Z,41.04
2016-04-24T07:56:00.665Z,41.04
2016-04-24T07:57:01.121Z,41.13
2016-04-24T07:58:00.764Z,40.96
2016-04-24T07:59:00.813Z,40.94
2016-04-24T08:00:00.847Z,41.13
2016-04-24T08:01:00.912Z,41.13
2016-04-24T08:02:00.961Z,40.84
2016-04-24T08:03:01.012Z,41.04
2016-04-24T08:04:01.061Z,40.87
2016-04-24T08:05:01.111Z,41.16
2016-04-24T08:06:01.175Z,41.23
2016-04-24T08:07:01.225Z,41.23
2016-04-24T08:08:01.259Z,40.96
2016-04-24T08:09:01.184Z,40.94
2016-04-24T08:10:01.374Z,41.33
2016-04-24T08:11:01.392Z,41.13
2016-04-24T08:12:01.457Z,41.42
2016-04-24T08:13:01.522Z,41.13
2016-04-24T08:14:01.557Z,41.23
2016-04-24T08:15:01.607Z,41.33
2016-04-24T08:16:01.687Z,41.33
2016-04-24T08:17:01.721Z,41.33
2016-04-24T08:18:01.770Z,41.33
2016-04-24T08:19:01.805Z,41.42
2016-04-24T08:20:01.870Z,41.35
2016-04-24T08:21:01.919Z,41.42
2016-04-24T08:22:04.141Z,41.23
2016-04-24T08:23:02.003Z,41.33
2016-04-24T08:24:02.098Z,41.13
2016-04-24T08:25:02.134Z,41.33
2016-04-24T08:26:02.167Z,41.71
2016-04-24T08:27:02.248Z,41.23
2016-04-24T08:28:02.281Z,41.33
2016-04-24T08:29:02.315Z,41.23
2016-04-24T08:30:02.397Z,41.52
2016-04-24T08:31:02.431Z,41.61
2016-04-24T08:32:02.496Z,41.61
2016-04-24T08:33:02.514Z,41.71
2016-04-24T08:34:02.579Z,41.61
2016-04-24T08:35:02.628Z,41.33
2016-04-24T08:36:02.678Z,41.23
2016-04-24T08:37:02.728Z,41.52
2016-04-24T08:38:02.793Z,41.71
2016-04-24T08:39:02.686Z,41.52
2016-04-24T08:40:02.877Z,41.63
2016-04-24T08:41:02.942Z,41.52
2016-04-24T08:42:03.007Z,41.52
2016-04-24T08:43:03.025Z,41.9
2016-04-24T08:44:03.075Z,41.61
2016-04-24T08:45:03.124Z,42.6
2016-04-24T08:46:03.205Z,42.19
2016-04-24T08:47:03.239Z,42.21
2016-04-24T08:48:03.288Z,42.21
2016-04-24T08:49:03.369Z,42.1
2016-04-24T08:50:03.403Z,42.4
2016-04-24T08:51:03.438Z,42.11
2016-04-24T08:52:03.503Z,42.19
2016-04-24T08:53:03.552Z,42.6
2016-04-24T08:54:03.617Z,42.11
2016-04-24T08:55:02.901Z,42
2016-04-24T08:56:03.701Z,42.5
2016-04-24T08:57:03.750Z,41.83
2016-04-24T08:58:03.800Z,42.47
2016-04-24T08:59:03.834Z,42.4
2016-04-24T09:00:03.915Z,42.11
2016-04-24T09:01:03.948Z,42.6
2016-04-24T09:02:04.014Z,42.38
2016-04-24T09:03:04.032Z,42.11
2016-04-24T09:04:04.113Z,42.29
2016-04-24T09:05:04.147Z,42.3
2016-04-24T09:06:04.197Z,42.4
2016-04-24T09:07:04.261Z,42.88
2016-04-24T09:08:04.327Z,42.4
2016-04-24T09:09:05.752Z,42.79
2016-04-24T09:10:04.770Z,42.79
2016-04-24T09:11:04.461Z,42.88
2016-04-24T09:12:04.494Z,42.6
2016-04-24T09:13:04.575Z,42.88
2016-04-24T09:14:04.624Z,42.69
2016-04-24T09:15:04.658Z,42.21
2016-04-24T09:16:04.724Z,42.3
2016-04-24T09:17:04.616Z,42.4
2016-04-24T09:18:04.807Z,42.6
2016-04-24T09:19:04.857Z,42.79
2016-04-24T09:20:04.922Z,42.98
2016-04-24T09:21:04.955Z,42.69
2016-04-24T09:22:05.021Z,42.79
2016-04-24T09:23:05.054Z,42.79
2016-04-24T09:24:05.370Z,42.79
2016-04-24T09:25:05.170Z,42.6
2016-04-24T09:26:05.204Z,42.3
2016-04-24T09:27:05.268Z,42.88
2016-04-24T09:28:05.349Z,42.79
2016-04-24T09:29:05.368Z,42.6
2016-04-24T09:30:05.417Z,42.69
2016-04-24T09:31:05.482Z,42.98
2016-04-24T09:32:08.469Z,42.79
2016-04-24T09:33:05.567Z,42.69
2016-04-24T09:34:05.647Z,42.79
2016-04-24T09:35:05.665Z,43.07
2016-04-24T09:36:05.731Z,42.98
2016-04-24T09:37:05.780Z,43.27
2016-04-24T09:38:05.830Z,43.17
2016-04-24T09:39:05.894Z,43.17
2016-04-24T09:40:06.726Z,42.79
2016-04-24T09:41:05.978Z,43.07
2016-04-24T09:42:06.044Z,42.98
2016-04-24T09:43:06.109Z,42.98
2016-04-24T09:44:06.127Z,43.36
2016-04-24T09:45:06.192Z,42.98
2016-04-24T09:46:06.242Z,43.17
2016-04-24T09:47:06.276Z,43.17
2016-04-24T09:48:06.341Z,43.17
2016-04-24T09:49:06.375Z,43.15
2016-04-24T09:50:06.455Z,43.44
2016-04-24T09:51:06.505Z,40
2016-04-24T09:52:06.538Z,37.03
2016-04-24T09:53:06.605Z,36.24
2016-04-24T09:54:07.138Z,36.72
2016-04-24T09:55:06.688Z,37.97
2016-04-24T09:56:06.753Z,39.22
2016-04-24T09:57:06.802Z,39.89
2016-04-24T09:58:06.837Z,40.17
2016-04-24T09:59:06.886Z,40.47
2016-04-24T10:00:06.951Z,40.56
2016-04-24T10:01:07.001Z,40.56
2016-04-24T10:02:07.051Z,40.66
2016-04-24T10:03:07.084Z,40.37
2016-04-24T10:04:07.150Z,40.27
2016-04-24T10:05:07.199Z,40.37
2016-04-24T10:06:07.248Z,40.47
2016-04-24T10:07:07.283Z,40.56
2016-04-24T10:08:07.364Z,40.84
2016-04-24T10:09:08.148Z,40.75
2016-04-24T10:10:07.931Z,40.66
2016-04-24T10:11:07.528Z,40.75
2016-04-24T10:12:07.562Z,40.75
2016-04-24T10:13:07.627Z,41.06
2016-04-24T10:14:07.645Z,41.06
2016-04-24T10:15:07.711Z,40.84
2016-04-24T10:16:07.760Z,40.84
2016-04-24T10:17:07.794Z,41.25
2016-04-24T10:18:07.844Z,40.87
2016-04-24T10:19:07.908Z,41.35
2016-04-24T10:20:07.959Z,41.35
2016-04-24T10:21:08.305Z,41.16
2016-04-24T10:22:08.073Z,41.44
2016-04-24T10:23:08.107Z,41.25
2016-04-24T10:24:08.171Z,41.13
2016-04-24T10:25:08.128Z,41.16
2016-04-24T10:26:08.255Z,41.25
2016-04-24T10:27:08.321Z,41.25
2016-04-24T10:28:08.370Z,41.23
2016-04-24T10:29:08.405Z,41.42
2016-04-24T10:30:08.485Z,41.44
2016-04-24T10:31:08.519Z,41.42
2016-04-24T10:32:08.568Z,41.33
2016-04-24T10:33:08.634Z,41.23
2016-04-24T10:34:08.684Z,41.61
2016-04-24T10:35:08.718Z,41.35
2016-04-24T10:36:08.783Z,41.35
2016-04-24T10:37:08.832Z,41.33
2016-04-24T10:38:08.866Z,41.44
2016-04-24T10:39:08.947Z,41.63
2016-04-24T10:40:09.231Z,42.3
2016-04-24T10:41:09.030Z,42.21
2016-04-24T10:42:09.080Z,42.21
2016-04-24T10:43:09.114Z,42.21
2016-04-24T10:44:09.179Z,42.11
2016-04-24T10:45:09.245Z,42.21
2016-04-24T10:46:09.278Z,42.21
2016-04-24T10:47:09.327Z,42.21
2016-04-24T10:48:09.394Z,42.02
2016-04-24T10:49:09.427Z,42.3
2016-04-24T10:50:09.477Z,42.3
2016-04-24T10:51:09.542Z,42.21
2016-04-24T10:52:09.591Z,42.21
2016-04-24T10:53:09.625Z,42.3
2016-04-24T10:54:09.816Z,42.5
2016-04-24T10:55:10.005Z,42.79
2016-04-24T10:56:09.774Z,42.29
2016-04-24T10:57:09.855Z,42.5
2016-04-24T10:58:09.904Z,42.79
2016-04-24T10:59:09.945Z,42.6
2016-04-24T11:00:10.051Z,42.69
2016-04-24T11:01:10.157Z,42.86
2016-04-24T11:02:10.201Z,42.77
2016-04-24T11:03:10.308Z,42.96
2016-04-24T11:04:10.409Z,42.67
2016-04-24T11:05:10.474Z,42.67
2016-04-24T11:06:10.539Z,42.67
2016-04-24T11:07:10.697Z,42.77
2016-04-24T11:08:10.668Z,43.17
2016-04-24T11:09:11.106Z,43.17
2016-04-24T11:10:10.786Z,42.98
2016-04-24T11:11:10.825Z,42.88
2016-04-24T11:12:10.927Z,42.98
2016-04-24T11:13:10.951Z,42.6
2016-04-24T11:14:11.005Z,42.69
2016-04-24T11:15:11.072Z,42.98
2016-04-24T11:16:11.123Z,43.17
2016-04-24T11:17:11.175Z,43.36
2016-04-24T11:18:11.211Z,43.17
2016-04-24T11:19:11.262Z,43.36
2016-04-24T11:20:11.343Z,42.98
2016-04-24T11:21:11.378Z,42.98
2016-04-24T11:22:11.443Z,43.15
2016-04-24T11:23:11.493Z,43.46
2016-04-24T11:24:11.559Z,42.98
2016-04-24T11:25:12.046Z,43.46
2016-04-24T11:26:11.643Z,43.17
2016-04-24T11:27:11.694Z,43.34
2016-04-24T11:28:11.727Z,43.36
2016-04-24T11:29:11.793Z,43.55
2016-04-24T11:30:11.828Z,43.84
2016-04-24T11:31:11.908Z,43.46
2016-04-24T11:32:11.942Z,43.46
2016-04-24T11:33:11.991Z,43.74
2016-04-24T11:34:12.056Z,43.34
2016-04-24T11:35:12.090Z,43.65
2016-04-24T11:36:12.139Z,43.65
2016-04-24T11:37:12.221Z,43.55
2016-04-24T11:38:12.255Z,43.65
2016-04-24T11:39:12.304Z,43.53
2016-04-24T11:40:12.354Z,43.65
2016-04-24T11:41:12.402Z,43.46
2016-04-24T11:42:12.437Z,43.73
2016-04-24T11:43:12.503Z,43.74
2016-04-24T11:44:12.536Z,43.65
2016-04-24T11:45:12.617Z,43.65
2016-04-24T11:46:12.651Z,43.46
2016-04-24T11:47:12.701Z,43.65
2016-04-24T11:48:12.751Z,43.74
2016-04-24T11:49:12.815Z,43.55
2016-04-24T11:50:12.849Z,43.74
2016-04-24T11:51:12.899Z,43.55
2016-04-24T11:52:12.980Z,43.46
2016-04-24T11:53:12.982Z,43.36
2016-04-24T11:54:13.048Z,43.44
2016-04-24T11:55:13.113Z,43.82
2016-04-24T11:56:13.162Z,43.55
2016-04-24T11:57:13.212Z,43.84
2016-04-24T11:58:13.246Z,43.55
2016-04-24T11:59:13.295Z,43.44
2016-04-24T12:00:13.361Z,43.36
2016-04-24T12:01:13.410Z,43.55
2016-04-24T12:02:13.444Z,43.55
2016-04-24T12:03:13.525Z,43.53
2016-04-24T12:04:13.575Z,43.44
2016-04-24T12:05:13.624Z,43.46
2016-04-24T12:06:13.674Z,43.55
2016-04-24T12:07:13.723Z,43.55
2016-04-24T12:08:13.757Z,43.73
2016-04-24T12:09:14.182Z,43.74
2016-04-24T12:10:14.763Z,43.44
2016-04-24T12:11:13.921Z,44.01
2016-04-24T12:12:13.971Z,43.94
2016-04-24T12:13:14.036Z,43.91
2016-04-24T12:14:14.085Z,43.84
2016-04-24T12:15:14.135Z,43.65
2016-04-24T12:16:14.169Z,43.94
2016-04-24T12:17:14.219Z,43.91
2016-04-24T12:18:14.284Z,43.91
2016-04-24T12:19:14.334Z,44.01
2016-04-24T12:20:14.382Z,43.84
2016-04-24T12:21:14.401Z,43.44
2016-04-24T12:22:14.482Z,43.55
2016-04-24T12:23:14.515Z,43.65
2016-04-24T12:24:14.566Z,43.63
2016-04-24T12:25:14.771Z,43.84
2016-04-24T12:26:14.681Z,43.44
2016-04-24T12:27:14.731Z,43.65
2016-04-24T12:28:14.779Z,43.65
2016-04-24T12:29:14.845Z,43.65
2016-04-24T12:30:14.864Z,43.63
2016-04-24T12:31:14.928Z,43.73
2016-04-24T12:32:14.994Z,43.82
2016-04-24T12:33:15.012Z,43.84
2016-04-24T12:34:15.077Z,43.73
2016-04-24T12:35:15.142Z,43.91
2016-04-24T12:36:15.192Z,43.91
2016-04-24T12:37:15.225Z,43.82
2016-04-24T12:38:15.291Z,44.11
2016-04-24T12:39:15.356Z,44.11
2016-04-24T12:40:15.374Z,44.01
2016-04-24T12:41:15.439Z,44.01
2016-04-24T12:42:15.505Z,44.01
2016-04-24T12:43:15.523Z,44.11
2016-04-24T12:44:15.588Z,44.11
2016-04-24T12:45:15.638Z,44.01
2016-04-24T12:46:15.688Z,44.11
2016-04-24T12:47:15.753Z,43.91
2016-04-24T12:48:15.802Z,44.01
2016-04-24T12:49:15.851Z,44.11
2016-04-24T12:50:15.902Z,44.11
2016-04-24T12:51:15.935Z,44.4
2016-04-24T12:52:16.016Z,44.01
2016-04-24T12:53:16.091Z,44.3
2016-04-24T12:54:16.686Z,44.49
2016-04-24T12:55:16.221Z,43.91
2016-04-24T12:56:16.207Z,44.3
2016-04-24T12:57:16.242Z,44.3